sensor_id;sensor_type;location;lat;lon;timestamp;pressure;altitude;pressure_sealevel;temperature;humidity
46476;BME280;53376;51.114;14.738;2022-10-23T00:00:38;98622.06;;;14.32;67.96
46476;BME280;53376;51.114;14.738;2022-10-23T00:13:22;98627.00;;;14.26;67.82
46476;BME280;53376;51.114;14.738;2022-10-23T00:16:01;98631.47;;;14.25;67.83
46476;BME280;53376;51.114;14.738;2022-10-23T00:18:41;98630.63;;;14.25;67.62
46476;BME280;53376;51.114;14.738;2022-10-23T00:21:10;98639.59;;;14.24;67.94
46476;BME280;53376;51.114;14.738;2022-10-23T00:23:52;98634.38;;;14.22;67.79
46476;BME280;53376;51.114;14.738;2022-10-23T00:26:19;98642.41;;;14.22;68.01
46476;BME280;53376;51.114;14.738;2022-10-23T00:29:02;98642.41;;;14.22;67.78
46476;BME280;53376;51.114;14.738;2022-10-23T00:41:43;98643.69;;;14.16;67.68
46476;BME280;53376;51.114;14.738;2022-10-23T00:47:52;98641.97;;;14.15;67.67
46476;BME280;53376;51.114;14.738;2022-10-23T00:50:23;98636.84;;;14.12;67.74
46476;BME280;53376;51.114;14.738;2022-10-23T00:53:04;98648.28;;;14.14;67.75
46476;BME280;53376;51.114;14.738;2022-10-23T00:55:32;98647.44;;;14.14;67.79
46476;BME280;53376;51.114;14.738;2022-10-23T01:08:50;98657.38;;;14.12;67.90
46476;BME280;53376;51.114;14.738;2022-10-23T01:11:42;98662.00;;;14.10;68.00
46476;BME280;53376;51.114;14.738;2022-10-23T01:14:26;98662.94;;;14.09;68.13
46476;BME280;53376;51.114;14.738;2022-10-23T01:17:19;98659.31;;;14.10;67.96
46476;BME280;53376;51.114;14.738;2022-10-23T01:20:09;98650.53;;;14.08;68.13
46476;BME280;53376;51.114;14.738;2022-10-23T01:33:41;98652.47;;;14.06;68.01
46476;BME280;53376;51.114;14.738;2022-10-23T01:36:28;98640.94;;;14.05;68.06
46476;BME280;53376;51.114;14.738;2022-10-23T01:39:07;98645.50;;;14.03;67.87
46476;BME280;53376;51.114;14.738;2022-10-23T01:41:54;98643.81;;;14.02;67.88
46476;BME280;53376;51.114;14.738;2022-10-23T01:44:36;98637.63;;;14.01;67.99
46476;BME280;53376;51.114;14.738;2022-10-23T01:47:24;98634.09;;;14.01;68.01
46476;BME280;53376;51.114;14.738;2022-10-23T01:50:07;98637.72;;;14.00;68.14
46476;BME280;53376;51.114;14.738;2022-10-23T02:00:20;98633.47;;;13.97;68.22
46476;BME280;53376;51.114;14.738;2022-10-23T02:03:00;98638.81;;;13.97;68.20
46476;BME280;53376;51.114;14.738;2022-10-23T02:05:43;98638.81;;;13.97;68.09
46476;BME280;53376;51.114;14.738;2022-10-23T02:08:11;98638.81;;;13.97;68.14
46476;BME280;53376;51.114;14.738;2022-10-23T02:10:57;98642.44;;;13.96;68.03
46476;BME280;53376;51.114;14.738;2022-10-23T02:13:42;98645.22;;;13.95;68.00
46476;BME280;53376;51.114;14.738;2022-10-23T02:27:11;98640.97;;;13.92;68.02
46476;BME280;53376;51.114;14.738;2022-10-23T02:30:03;98639.97;;;13.93;68.13
46476;BME280;53376;51.114;14.738;2022-10-23T02:32:43;98642.63;;;13.93;68.18
46476;BME280;53376;51.114;14.738;2022-10-23T02:35:26;98638.28;;;13.92;67.97
46476;BME280;53376;51.114;14.738;2022-10-23T02:38:02;98640.97;;;13.92;67.95
46476;BME280;53376;51.114;14.738;2022-10-23T02:41:15;98629.50;;;13.90;68.25
46476;BME280;53376;51.114;14.738;2022-10-23T02:54:47;98625.38;;;13.86;68.00
46476;BME280;53376;51.114;14.738;2022-10-23T02:57:59;98633.38;;;13.86;67.95
46476;BME280;53376;51.114;14.738;2022-10-23T03:00:49;98628.03;;;13.86;67.95
46476;BME280;53376;51.114;14.738;2022-10-23T03:03:29;98617.44;;;13.84;68.01
46476;BME280;53376;51.114;14.738;2022-10-23T03:06:12;98621.94;;;13.84;68.07
46476;BME280;53376;51.114;14.738;2022-10-23T03:08:52;98621.19;;;13.82;68.07
46476;BME280;53376;51.114;14.738;2022-10-23T03:22:05;98628.34;;;13.81;68.02
46476;BME280;53376;51.114;14.738;2022-10-23T03:24:44;98622.13;;;13.81;67.80
46476;BME280;53376;51.114;14.738;2022-10-23T03:27:11;98621.19;;;13.82;68.06
46476;BME280;53376;51.114;14.738;2022-10-23T03:29:53;98618.50;;;13.82;67.97
46476;BME280;53376;51.114;14.738;2022-10-23T03:32:20;98615.94;;;13.80;67.97
46476;BME280;53376;51.114;14.738;2022-10-23T03:35:00;98618.75;;;13.79;67.91
46476;BME280;53376;51.114;14.738;2022-10-23T03:47:53;98631.34;;;13.77;67.92
46476;BME280;53376;51.114;14.738;2022-10-23T03:50:34;98634.97;;;13.76;68.05
46476;BME280;53376;51.114;14.738;2022-10-23T03:53:14;98636.69;;;13.77;67.97
46476;BME280;53376;51.114;14.738;2022-10-23T03:55:40;98629.63;;;13.76;68.11
46476;BME280;53376;51.114;14.738;2022-10-23T03:58:16;98630.50;;;13.76;67.92
46476;BME280;53376;51.114;14.738;2022-10-23T04:00:56;98626.94;;;13.76;67.86
46476;BME280;53376;51.114;14.738;2022-10-23T04:16:50;98634.84;;;13.77;67.64
46476;BME280;53376;51.114;14.738;2022-10-23T04:19:30;98636.69;;;13.77;67.55
46476;BME280;53376;51.114;14.738;2022-10-23T04:21:57;98636.69;;;13.77;67.73
46476;BME280;53376;51.114;14.738;2022-10-23T04:24:38;98638.59;;;13.75;67.48
46476;BME280;53376;51.114;14.738;2022-10-23T04:27:05;98641.38;;;13.73;67.65
46476;BME280;53376;51.114;14.738;2022-10-23T04:29:46;98639.66;;;13.72;67.72
46476;BME280;53376;51.114;14.738;2022-10-23T04:42:28;98638.28;;;13.66;67.85
46476;BME280;53376;51.114;14.738;2022-10-23T04:45:10;98630.47;;;13.63;67.83
46476;BME280;53376;51.114;14.738;2022-10-23T04:47:50;98629.63;;;13.63;67.93
46476;BME280;53376;51.114;14.738;2022-10-23T04:50:16;98629.75;;;13.61;67.87
46476;BME280;53376;51.114;14.738;2022-10-23T04:53:10;98630.72;;;13.60;67.91
46476;BME280;53376;51.114;14.738;2022-10-23T05:10:37;98618.50;;;13.56;68.13
46476;BME280;53376;51.114;14.738;2022-10-23T05:13:13;98613.19;;;13.56;67.97
46476;BME280;53376;51.114;14.738;2022-10-23T05:15:53;98617.56;;;13.57;68.21
46476;BME280;53376;51.114;14.738;2022-10-23T05:18:24;98625.56;;;13.57;68.12
46476;BME280;53376;51.114;14.738;2022-10-23T05:21:10;98623.78;;;13.58;67.94
46476;BME280;53376;51.114;14.738;2022-10-23T05:34:25;98630.91;;;13.57;67.81
46476;BME280;53376;51.114;14.738;2022-10-23T05:37:11;98626.53;;;13.56;67.70
46476;BME280;53376;51.114;14.738;2022-10-23T05:40:02;98629.31;;;13.54;67.78
46476;BME280;53376;51.114;14.738;2022-10-23T05:42:38;98620.44;;;13.54;67.78
46476;BME280;53376;51.114;14.738;2022-10-23T05:45:29;98626.88;;;13.51;67.71
46476;BME280;53376;51.114;14.738;2022-10-23T05:48:25;98635.84;;;13.50;67.66
46476;BME280;53376;51.114;14.738;2022-10-23T05:51:20;98641.16;;;13.50;67.75
46476;BME280;53376;51.114;14.738;2022-10-23T06:01:06;98642.25;;;13.48;67.72
46476;BME280;53376;51.114;14.738;2022-10-23T06:03:59;98641.59;;;13.44;67.79
46476;BME280;53376;51.114;14.738;2022-10-23T06:06:50;98663.59;;;13.48;67.78
46476;BME280;53376;51.114;14.738;2022-10-23T06:09:30;98656.53;;;13.47;67.86
46476;BME280;53376;51.114;14.738;2022-10-23T06:11:58;98666.34;;;13.46;67.85
46476;BME280;53376;51.114;14.738;2022-10-23T06:14:44;98661.88;;;13.47;67.84
46476;BME280;53376;51.114;14.738;2022-10-23T06:27:55;98644.25;;;13.44;68.12
46476;BME280;53376;51.114;14.738;2022-10-23T06:30:37;98648.84;;;13.42;68.16
46476;BME280;53376;51.114;14.738;2022-10-23T06:33:17;98655.91;;;13.43;68.34
46476;BME280;53376;51.114;14.738;2022-10-23T06:35:44;98653.09;;;13.45;68.26
46476;BME280;53376;51.114;14.738;2022-10-23T06:38:24;98656.72;;;13.44;68.45
46476;BME280;53376;51.114;14.738;2022-10-23T06:40:55;98660.16;;;13.46;68.41
46476;BME280;53376;51.114;14.738;2022-10-23T06:54:39;98667.22;;;13.47;68.53
46476;BME280;53376;51.114;14.738;2022-10-23T06:57:23;98658.25;;;13.48;68.71
46476;BME280;53376;51.114;14.738;2022-10-23T06:59:57;98659.97;;;13.49;68.69
46476;BME280;53376;51.114;14.738;2022-10-23T07:02:49;98659.97;;;13.49;68.72
46476;BME280;53376;51.114;14.738;2022-10-23T07:05:23;98658.91;;;13.51;68.92
46476;BME280;53376;51.114;14.738;2022-10-23T07:08:03;98662.41;;;13.52;68.77
46476;BME280;53376;51.114;14.738;2022-10-23T07:10:39;98665.09;;;13.52;68.95
46476;BME280;53376;51.114;14.738;2022-10-23T07:23:49;98675.16;;;13.61;69.64
46476;BME280;53376;51.114;14.738;2022-10-23T07:26:24;98683.03;;;13.63;69.67
46476;BME280;53376;51.114;14.738;2022-10-23T07:28:57;98695.31;;;13.65;69.65
46476;BME280;53376;51.114;14.738;2022-10-23T07:31:37;98690.75;;;13.67;69.86
46476;BME280;53376;51.114;14.738;2022-10-23T07:34:42;98686.13;;;13.69;69.89
46476;BME280;53376;51.114;14.738;2022-10-23T07:48:11;98687.13;;;13.81;69.90
46476;BME280;53376;51.114;14.738;2022-10-23T07:50:59;98678.97;;;13.83;69.89
46476;BME280;53376;51.114;14.738;2022-10-23T07:53:40;98680.69;;;13.84;70.04
46476;BME280;53376;51.114;14.738;2022-10-23T07:56:46;98677.81;;;13.87;70.06
46476;BME280;53376;51.114;14.738;2022-10-23T07:59:24;98676.84;;;13.88;69.87
46476;BME280;53376;51.114;14.738;2022-10-23T08:16:10;98681.88;;;13.93;69.44
46476;BME280;53376;51.114;14.738;2022-10-23T08:19:03;98687.09;;;13.94;69.50
46476;BME280;53376;51.114;14.738;2022-10-23T08:21:46;98683.47;;;13.95;69.78
46476;BME280;53376;51.114;14.738;2022-10-23T08:24:13;98681.56;;;13.97;69.63
46476;BME280;53376;51.114;14.738;2022-10-23T08:26:53;98676.84;;;14.01;69.58
46476;BME280;53376;51.114;14.738;2022-10-23T08:29:22;98670.44;;;14.03;69.49
46476;BME280;53376;51.114;14.738;2022-10-23T08:42:38;98676.06;;;14.12;70.11
46476;BME280;53376;51.114;14.738;2022-10-23T08:45:28;98671.47;;;14.14;70.45
46476;BME280;53376;51.114;14.738;2022-10-23T08:48:21;98668.69;;;14.15;70.18
46476;BME280;53376;51.114;14.738;2022-10-23T08:51:30;98681.97;;;14.17;70.38
46476;BME280;53376;51.114;14.738;2022-10-23T08:54:14;98675.75;;;14.16;70.20
46476;BME280;53376;51.114;14.738;2022-10-23T09:11:00;98665.47;;;14.36;70.37
46476;BME280;53376;51.114;14.738;2022-10-23T09:14:03;98669.53;;;14.42;70.48
46476;BME280;53376;51.114;14.738;2022-10-23T09:17:19;98662.00;;;14.47;70.44
46476;BME280;53376;51.114;14.738;2022-10-23T09:20:04;98668.84;;;14.51;70.52
46476;BME280;53376;51.114;14.738;2022-10-23T09:22:52;98657.81;;;14.56;70.48
46476;BME280;53376;51.114;14.738;2022-10-23T09:25:23;98650.41;;;14.59;70.41
46476;BME280;53376;51.114;14.738;2022-10-23T09:35:22;98650.56;;;14.82;70.37
46476;BME280;53376;51.114;14.738;2022-10-23T09:38:04;98660.81;;;14.88;70.20
46476;BME280;53376;51.114;14.738;2022-10-23T09:40:45;98661.31;;;14.93;70.00
46476;BME280;53376;51.114;14.738;2022-10-23T09:43:14;98664.28;;;15.02;69.91
46476;BME280;53376;51.114;14.738;2022-10-23T09:46:03;98664.78;;;15.07;69.71
46476;BME280;53376;51.114;14.738;2022-10-23T09:48:39;98662.63;;;15.12;69.77
46476;BME280;53376;51.114;14.738;2022-10-23T09:51:21;98655.97;;;15.18;69.83
46476;BME280;53376;51.114;14.738;2022-10-23T10:04:03;98655.22;;;15.51;69.22
46476;BME280;53376;51.114;14.738;2022-10-23T10:06:56;98652.06;;;15.57;69.06
46476;BME280;53376;51.114;14.738;2022-10-23T10:09:36;98643.66;;;15.62;68.89
46476;BME280;53376;51.114;14.738;2022-10-23T10:12:29;98644.03;;;15.69;68.93
46476;BME280;53376;51.114;14.738;2022-10-23T10:15:27;98644.28;;;15.77;68.68
46476;BME280;53376;51.114;14.738;2022-10-23T10:28:44;98641.16;;;16.06;67.93
46476;BME280;53376;51.114;14.738;2022-10-23T10:31:44;98642.38;;;16.13;68.11
46476;BME280;53376;51.114;14.738;2022-10-23T10:34:42;98635.44;;;16.22;68.16
46476;BME280;53376;51.114;14.738;2022-10-23T10:37:31;98632.13;;;16.30;68.01
46476;BME280;53376;51.114;14.738;2022-10-23T10:40:29;98618.22;;;16.36;67.97
46476;BME280;53376;51.114;14.738;2022-10-23T10:43:23;98627.47;;;16.43;67.72
46476;BME280;53376;51.114;14.738;2022-10-23T10:46:22;98623.31;;;16.50;67.51
46476;BME280;53376;51.114;14.738;2022-10-23T10:55:58;98620.69;;;16.71;66.94
46476;BME280;53376;51.114;14.738;2022-10-23T10:58:45;98612.28;;;16.76;66.72
46476;BME280;53376;51.114;14.738;2022-10-23T11:01:27;98614.59;;;16.81;66.73
46476;BME280;53376;51.114;14.738;2022-10-23T11:04:16;98604.44;;;16.84;66.39
46476;BME280;53376;51.114;14.738;2022-10-23T11:06:57;98612.22;;;16.87;66.37
46476;BME280;53376;51.114;14.738;2022-10-23T11:09:39;98603.22;;;16.88;66.27
46476;BME280;53376;51.114;14.738;2022-10-23T11:22:30;98593.56;;;17.18;65.64
46476;BME280;53376;51.114;14.738;2022-10-23T11:25:36;98585.00;;;17.24;65.84
46476;BME280;53376;51.114;14.738;2022-10-23T11:28:57;98575.69;;;17.29;65.61
46476;BME280;53376;51.114;14.738;2022-10-23T11:31:53;98583.09;;;17.36;65.09
46476;BME280;53376;51.114;14.738;2022-10-23T11:35:09;98578.31;;;17.40;64.97
46476;BME280;53376;51.114;14.738;2022-10-23T11:51:33;98551.09;;;17.54;64.92
46476;BME280;53376;51.114;14.738;2022-10-23T11:54:22;98545.47;;;17.58;64.54
46476;BME280;53376;51.114;14.738;2022-10-23T11:57:10;98539.94;;;17.59;64.90
46476;BME280;53376;51.114;14.738;2022-10-23T11:59:53;98537.13;;;17.61;64.59
46476;BME280;53376;51.114;14.738;2022-10-23T12:02:31;98525.38;;;17.62;64.40
46476;BME280;53376;51.114;14.738;2022-10-23T12:05:28;98513.66;;;17.63;64.46
46476;BME280;53376;51.114;14.738;2022-10-23T12:18:22;98505.84;;;17.60;63.88
46476;BME280;53376;51.114;14.738;2022-10-23T12:20:51;98504.88;;;17.61;63.91
46476;BME280;53376;51.114;14.738;2022-10-23T12:23:52;98498.66;;;17.60;63.83
46476;BME280;53376;51.114;14.738;2022-10-23T12:27:00;98493.44;;;17.59;64.01
46476;BME280;53376;51.114;14.738;2022-10-23T12:30:11;98490.75;;;17.59;64.13
46476;BME280;53376;51.114;14.738;2022-10-23T12:43:23;98483.09;;;17.54;64.17
46476;BME280;53376;51.114;14.738;2022-10-23T12:46:21;98470.78;;;17.51;64.10
46476;BME280;53376;51.114;14.738;2022-10-23T12:49:14;98461.00;;;17.50;63.96
46476;BME280;53376;51.114;14.738;2022-10-23T12:51:54;98463.84;;;17.49;63.98
46476;BME280;53376;51.114;14.738;2022-10-23T12:54:38;98461.25;;;17.47;63.81
46476;BME280;53376;51.114;14.738;2022-10-23T13:10:54;98448.25;;;17.43;63.88
46476;BME280;53376;51.114;14.738;2022-10-23T13:13:40;98443.72;;;17.43;64.01
46476;BME280;53376;51.114;14.738;2022-10-23T13:16:14;98440.06;;;17.44;63.98
46476;BME280;53376;51.114;14.738;2022-10-23T13:18:55;98433.56;;;17.47;63.79
46476;BME280;53376;51.114;14.738;2022-10-23T13:21:24;98439.53;;;17.50;63.76
46476;BME280;53376;51.114;14.738;2022-10-23T13:24:19;98431.31;;;17.52;63.52
46476;BME280;53376;51.114;14.738;2022-10-23T13:37:25;98427.78;;;17.51;63.58
46476;BME280;53376;51.114;14.738;2022-10-23T13:40:18;98423.13;;;17.53;63.35
46476;BME280;53376;51.114;14.738;2022-10-23T13:43:13;98427.78;;;17.51;63.37
46476;BME280;53376;51.114;14.738;2022-10-23T13:45:48;98424.53;;;17.48;63.21
46476;BME280;53376;51.114;14.738;2022-10-23T13:48:28;98429.31;;;17.44;63.25
46476;BME280;53376;51.114;14.738;2022-10-23T13:51:08;98422.53;;;17.40;63.53
46476;BME280;53376;51.114;14.738;2022-10-23T14:04:23;98411.72;;;17.20;64.26
46476;BME280;53376;51.114;14.738;2022-10-23T14:07:03;98410.25;;;17.16;64.15
46476;BME280;53376;51.114;14.738;2022-10-23T14:09:29;98410.41;;;17.15;64.34
46476;BME280;53376;51.114;14.738;2022-10-23T14:12:03;98406.97;;;17.13;64.15
46476;BME280;53376;51.114;14.738;2022-10-23T14:14:43;98408.84;;;17.12;64.06
46476;BME280;53376;51.114;14.738;2022-10-23T14:31:02;98411.97;;;17.17;63.92
46476;BME280;53376;51.114;14.738;2022-10-23T14:33:44;98408.28;;;17.18;64.01
46476;BME280;53376;51.114;14.738;2022-10-23T14:36:12;98401.22;;;17.17;64.00
46476;BME280;53376;51.114;14.738;2022-10-23T14:39:12;98397.84;;;17.15;63.88
46476;BME280;53376;51.114;14.738;2022-10-23T14:41:38;98393.06;;;17.19;63.71
46476;BME280;53376;51.114;14.738;2022-10-23T14:44:18;98398.72;;;17.26;63.69
46476;BME280;53376;51.114;14.738;2022-10-23T14:57:01;98389.28;;;18.11;60.58
46476;BME280;53376;51.114;14.738;2022-10-23T14:59:41;98390.13;;;18.21;60.07
46476;BME280;53376;51.114;14.738;2022-10-23T15:02:21;98384.06;;;18.29;59.76
46476;BME280;53376;51.114;14.738;2022-10-23T15:04:47;98386.44;;;18.23;59.67
46476;BME280;53376;51.114;14.738;2022-10-23T15:07:21;98371.75;;;18.07;60.22
46476;BME280;53376;51.114;14.738;2022-10-23T15:10:09;98380.59;;;17.88;60.76
46476;BME280;53376;51.114;14.738;2022-10-23T15:23:02;98376.81;;;17.20;62.05
46476;BME280;53376;51.114;14.738;2022-10-23T15:25:42;98367.84;;;17.10;62.76
46476;BME280;53376;51.114;14.738;2022-10-23T15:28:22;98368.66;;;17.01;62.91
46476;BME280;53376;51.114;14.738;2022-10-23T15:30:48;98351.41;;;16.94;63.09
46476;BME280;53376;51.114;14.738;2022-10-23T15:33:22;98351.91;;;16.87;63.35
46476;BME280;53376;51.114;14.738;2022-10-23T15:36:03;98355.13;;;16.81;63.50
46476;BME280;53376;51.114;14.738;2022-10-23T15:52:12;98351.69;;;16.48;64.33
46476;BME280;53376;51.114;14.738;2022-10-23T15:54:57;98340.50;;;16.43;64.71
46476;BME280;53376;51.114;14.738;2022-10-23T15:57:31;98337.13;;;16.41;64.59
46476;BME280;53376;51.114;14.738;2022-10-23T16:00:12;98326.66;;;16.38;64.60
46476;BME280;53376;51.114;14.738;2022-10-23T16:02:52;98327.63;;;16.37;64.86
46476;BME280;53376;51.114;14.738;2022-10-23T16:05:34;98339.59;;;16.33;64.84
46476;BME280;53376;51.114;14.738;2022-10-23T16:18:17;98357.47;;;16.22;65.20
46476;BME280;53376;51.114;14.738;2022-10-23T16:20:58;98352.09;;;16.22;65.05
46476;BME280;53376;51.114;14.738;2022-10-23T16:23:38;98343.31;;;16.20;65.11
46476;BME280;53376;51.114;14.738;2022-10-23T16:26:04;98353.19;;;16.20;65.36
46476;BME280;53376;51.114;14.738;2022-10-23T16:28:38;98339.09;;;16.18;65.26
46476;BME280;53376;51.114;14.738;2022-10-23T16:31:23;98329.47;;;16.15;65.49
46476;BME280;53376;51.114;14.738;2022-10-23T16:44:06;98311.94;;;16.11;65.71
46476;BME280;53376;51.114;14.738;2022-10-23T16:47:12;98316.44;;;16.10;65.76
46476;BME280;53376;51.114;14.738;2022-10-23T16:49:52;98310.25;;;16.10;65.84
46476;BME280;53376;51.114;14.738;2022-10-23T16:52:18;98300.50;;;16.09;65.89
46476;BME280;53376;51.114;14.738;2022-10-23T16:54:52;98308.53;;;16.09;65.89
46476;BME280;53376;51.114;14.738;2022-10-23T17:11:31;98302.84;;;16.02;66.54
46476;BME280;53376;51.114;14.738;2022-10-23T17:14:14;98292.97;;;16.03;66.42
46476;BME280;53376;51.114;14.738;2022-10-23T17:16:57;98303.72;;;16.03;66.59
46476;BME280;53376;51.114;14.738;2022-10-23T17:19:32;98288.59;;;16.02;66.38
46476;BME280;53376;51.114;14.738;2022-10-23T17:22:18;98297.47;;;16.02;66.63
46476;BME280;53376;51.114;14.738;2022-10-23T17:24:45;98292.97;;;16.03;66.61
46476;BME280;53376;51.114;14.738;2022-10-23T17:37:57;98252.06;;;16.01;66.49
46476;BME280;53376;51.114;14.738;2022-10-23T17:40:37;98256.69;;;15.99;66.68
46476;BME280;53376;51.114;14.738;2022-10-23T17:43:04;98241.34;;;16.01;66.76
46476;BME280;53376;51.114;14.738;2022-10-23T17:45:44;98245.00;;;16.00;66.77
46476;BME280;53376;51.114;14.738;2022-10-23T17:48:11;98238.06;;;15.97;66.72
46476;BME280;53376;51.114;14.738;2022-10-23T17:51:00;98245.97;;;15.99;66.94
46476;BME280;53376;51.114;14.738;2022-10-23T18:03:52;98243.56;;;15.95;66.81
46476;BME280;53376;51.114;14.738;2022-10-23T18:06:35;98239.03;;;15.96;66.83
46476;BME280;53376;51.114;14.738;2022-10-23T18:09:21;98235.53;;;15.95;66.75
46476;BME280;53376;51.114;14.738;2022-10-23T18:11:48;98240.00;;;15.95;66.71
46476;BME280;53376;51.114;14.738;2022-10-23T18:14:30;98231.13;;;15.94;66.76
46476;BME280;53376;51.114;14.738;2022-10-23T18:17:07;98232.13;;;15.93;66.88
46476;BME280;53376;51.114;14.738;2022-10-23T18:19:50;98230.31;;;15.94;66.63
46476;BME280;53376;51.114;14.738;2022-10-23T18:32:39;98210.81;;;15.92;66.70
46476;BME280;53376;51.114;14.738;2022-10-23T18:35:14;98201.94;;;15.91;66.87
46476;BME280;53376;51.114;14.738;2022-10-23T18:37:53;98194.75;;;15.92;66.55
46476;BME280;53376;51.114;14.738;2022-10-23T18:40:19;98196.59;;;15.91;66.54
46476;BME280;53376;51.114;14.738;2022-10-23T18:42:58;98188.53;;;15.91;66.91
46476;BME280;53376;51.114;14.738;2022-10-23T18:45:47;98187.69;;;15.91;66.76
46476;BME280;53376;51.114;14.738;2022-10-23T18:58:29;98178.53;;;15.93;66.80
46476;BME280;53376;51.114;14.738;2022-10-23T19:01:09;98168.53;;;15.95;66.84
46476;BME280;53376;51.114;14.738;2022-10-23T19:03:49;98159.50;;;15.97;66.88
46476;BME280;53376;51.114;14.738;2022-10-23T19:06:16;98168.25;;;15.99;66.77
46476;BME280;53376;51.114;14.738;2022-10-23T19:08:56;98155.13;;;15.95;66.79
46476;BME280;53376;51.114;14.738;2022-10-23T19:11:25;98140.88;;;15.95;66.81
46476;BME280;53376;51.114;14.738;2022-10-23T19:24:41;98132.44;;;16.00;66.49
46476;BME280;53376;51.114;14.738;2022-10-23T19:27:24;98125.66;;;15.95;66.39
46476;BME280;53376;51.114;14.738;2022-10-23T19:29:52;98133.41;;;15.99;66.44
46476;BME280;53376;51.114;14.738;2022-10-23T19:32:33;98130.72;;;15.99;66.42
46476;BME280;53376;51.114;14.738;2022-10-23T19:34:59;98124.38;;;16.00;66.33
46476;BME280;53376;51.114;14.738;2022-10-23T19:37:33;98126.09;;;16.01;66.25
46476;BME280;53376;51.114;14.738;2022-10-23T19:40:15;98128.03;;;15.99;66.19
46476;BME280;53376;51.114;14.738;2022-10-23T19:52:57;98129.91;;;15.98;66.04
46476;BME280;53376;51.114;14.738;2022-10-23T19:55:31;98140.63;;;15.98;66.02
46476;BME280;53376;51.114;14.738;2022-10-23T19:58:11;98137.94;;;15.98;66.05
46476;BME280;53376;51.114;14.738;2022-10-23T20:00:37;98143.28;;;15.98;66.11
46476;BME280;53376;51.114;14.738;2022-10-23T20:03:11;98145.25;;;15.96;65.86
46476;BME280;53376;51.114;14.738;2022-10-23T20:05:51;98147.09;;;15.95;65.87
46476;BME280;53376;51.114;14.738;2022-10-23T20:18:33;98108.84;;;15.93;65.72
46476;BME280;53376;51.114;14.738;2022-10-23T20:21:13;98096.56;;;15.91;65.78
46476;BME280;53376;51.114;14.738;2022-10-23T20:23:56;98097.16;;;15.94;65.51
46476;BME280;53376;51.114;14.738;2022-10-23T20:26:39;98092.78;;;15.93;65.74
46476;BME280;53376;51.114;14.738;2022-10-23T20:29:19;98083.91;;;15.93;65.46
46476;BME280;53376;51.114;14.738;2022-10-23T20:31:46;98091.22;;;15.91;65.39
46476;BME280;53376;51.114;14.738;2022-10-23T20:45:18;98092.34;;;15.88;65.20
46476;BME280;53376;51.114;14.738;2022-10-23T20:47:57;98066.50;;;15.87;65.13
46476;BME280;53376;51.114;14.738;2022-10-23T20:50:23;98069.19;;;15.87;64.94
46476;BME280;53376;51.114;14.738;2022-10-23T20:53:04;98067.50;;;15.86;65.04
46476;BME280;53376;51.114;14.738;2022-10-23T20:55:44;98062.13;;;15.86;64.91
46476;BME280;53376;51.114;14.738;2022-10-23T20:58:10;98059.44;;;15.86;64.76
46476;BME280;53376;51.114;14.738;2022-10-23T21:00:46;98057.66;;;15.87;64.86
46476;BME280;53376;51.114;14.738;2022-10-23T21:13:48;98023.22;;;15.82;64.98
46476;BME280;53376;51.114;14.738;2022-10-23T21:16:33;98030.38;;;15.82;64.97
46476;BME280;53376;51.114;14.738;2022-10-23T21:19:07;98030.28;;;15.83;64.72
46476;BME280;53376;51.114;14.738;2022-10-23T21:21:50;98027.59;;;15.83;64.81
46476;BME280;53376;51.114;14.738;2022-10-23T21:24:16;98024.91;;;15.83;64.61
46476;BME280;53376;51.114;14.738;2022-10-23T21:26:53;98026.63;;;15.84;64.68
46476;BME280;53376;51.114;14.738;2022-10-23T21:39:49;98080.19;;;15.84;64.29
46476;BME280;53376;51.114;14.738;2022-10-23T21:42:29;98085.56;;;15.84;64.26
46476;BME280;53376;51.114;14.738;2022-10-23T21:45:22;98092.63;;;15.85;64.40
46476;BME280;53376;51.114;14.738;2022-10-23T21:48:02;98097.97;;;15.85;64.28
46476;BME280;53376;51.114;14.738;2022-10-23T21:50:29;98085.56;;;15.84;64.24
46476;BME280;53376;51.114;14.738;2022-10-23T22:07:03;98057.91;;;15.84;64.44
46476;BME280;53376;51.114;14.738;2022-10-23T22:09:31;98057.06;;;15.83;64.30
46476;BME280;53376;51.114;14.738;2022-10-23T22:12:12;98099.06;;;15.83;64.44
46476;BME280;53376;51.114;14.738;2022-10-23T22:14:39;98110.66;;;15.83;64.83
46476;BME280;53376;51.114;14.738;2022-10-23T22:17:19;98121.38;;;15.83;65.42
46476;BME280;53376;51.114;14.738;2022-10-23T22:19:47;98123.06;;;15.84;65.58
46476;BME280;53376;51.114;14.738;2022-10-23T22:32:57;98149.34;;;15.79;66.26
46476;BME280;53376;51.114;14.738;2022-10-23T22:35:39;98149.34;;;15.79;66.23
46476;BME280;53376;51.114;14.738;2022-10-23T22:38:05;98146.66;;;15.79;66.32
46476;BME280;53376;51.114;14.738;2022-10-23T22:40:45;98144.13;;;15.77;66.57
46476;BME280;53376;51.114;14.738;2022-10-23T22:43:12;98139.88;;;15.75;66.68
46476;BME280;53376;51.114;14.738;2022-10-23T22:45:52;98151.47;;;15.75;66.80
46476;BME280;53376;51.114;14.738;2022-10-23T22:58:35;98190.59;;;15.67;66.90
46476;BME280;53376;51.114;14.738;2022-10-23T23:01:20;98192.41;;;15.66;67.03
46476;BME280;53376;51.114;14.738;2022-10-23T23:04:02;98213.00;;;15.66;67.12
46476;BME280;53376;51.114;14.738;2022-10-23T23:06:56;98198.16;;;15.61;66.97
46476;BME280;53376;51.114;14.738;2022-10-23T23:09:37;98201.13;;;15.58;67.18
46476;BME280;53376;51.114;14.738;2022-10-23T23:25:48;98196.00;;;15.55;67.57
46476;BME280;53376;51.114;14.738;2022-10-23T23:28:28;98179.09;;;15.55;67.58
46476;BME280;53376;51.114;14.738;2022-10-23T23:31:02;98150.47;;;15.55;67.61
46476;BME280;53376;51.114;14.738;2022-10-23T23:33:44;98123.69;;;15.55;67.43
46476;BME280;53376;51.114;14.738;2022-10-23T23:36:16;98132.59;;;15.56;67.60
46476;BME280;53376;51.114;14.738;2022-10-23T23:38:58;98135.38;;;15.54;67.61
46476;BME280;53376;51.114;14.738;2022-10-23T23:41:27;98134.41;;;15.55;67.57